Terminal Aerodrome Forecast
Issued by NWS Wilmington, OH

Current Version | Previous Version | Graphics & Text | Print | Product List | Glossary On
Versions: 1 2 3 4 5 6 7 8 9 10 11 12 13 14 15 16 17 18
000
FTUS41 KILN 201120
TAFILN
TAF
KILN 201120Z 2012/2112 19008KT 5SM -SHRA BR OVC005
     FM201300 21009KT P6SM OVC009
     FM201800 22010KT P6SM OVC012
     FM202100 21010KT P6SM BKN035
     FM210200 20005KT P6SM BKN015=

USA.gov is the U.S. government's official web portal to all federal, state and local government web resources and services.